createdAt,value
2022-08-30T00:01:09.156Z,99.90
2022-08-30T00:03:42.871Z,99.90
2022-08-30T00:06:09.746Z,99.90
2022-08-30T00:08:36.667Z,99.90
2022-08-30T00:11:04.912Z,99.90
2022-08-30T00:15:58.875Z,99.90
2022-08-30T00:20:52.829Z,99.90
2022-08-30T00:23:19.759Z,99.90
2022-08-30T00:25:46.512Z,99.90
2022-08-30T00:28:13.485Z,99.90
2022-08-30T00:30:40.589Z,99.90
2022-08-30T00:33:07.243Z,99.90
2022-08-30T00:35:34.014Z,99.90
2022-08-30T00:38:00.845Z,99.90
2022-08-30T00:42:59.276Z,99.90
2022-08-30T00:45:29.866Z,99.90
2022-08-30T00:47:56.582Z,99.90
2022-08-30T00:50:25.098Z,99.90
2022-08-30T00:52:53.054Z,99.90
2022-08-30T00:55:20.017Z,99.90
2022-08-30T01:00:15.230Z,99.90
2022-08-30T01:02:42.174Z,99.90
2022-08-30T01:05:10.762Z,99.90
2022-08-30T01:07:42.846Z,99.90
2022-08-30T01:10:11.502Z,99.90
2022-08-30T01:12:38.919Z,99.90
2022-08-30T01:15:06.982Z,99.90
2022-08-30T01:17:34.202Z,99.90
2022-08-30T01:20:09.166Z,99.90
2022-08-30T01:22:51.152Z,99.90
2022-08-30T01:25:28.983Z,99.90
2022-08-30T01:27:58.659Z,99.90
2022-08-30T01:30:25.384Z,99.90
2022-08-30T01:32:54.258Z,99.90
2022-08-30T01:35:20.915Z,99.90
2022-08-30T01:37:47.658Z,99.90
2022-08-30T01:40:14.915Z,99.90
2022-08-30T01:42:41.639Z,99.90
2022-08-30T01:46:06.677Z,99.90
2022-08-30T01:51:02.299Z,99.90
2022-08-30T01:53:29.054Z,99.90
2022-08-30T01:55:56.122Z,99.90
2022-08-30T01:58:23.325Z,99.90
2022-08-30T02:00:50.223Z,99.90
2022-08-30T02:05:44.295Z,99.90
2022-08-30T02:08:10.954Z,99.90
2022-08-30T02:13:04.706Z,99.90
2022-08-30T02:18:08.440Z,99.90
2022-08-30T02:20:35.098Z,99.90
2022-08-30T02:23:01.759Z,99.90
2022-08-30T02:25:28.403Z,99.90
2022-08-30T02:30:22.198Z,99.90
2022-08-30T02:32:48.968Z,99.90
2022-08-30T02:35:15.797Z,99.90
2022-08-30T02:37:42.544Z,99.90
2022-08-30T02:42:37.604Z,99.90
2022-08-30T02:45:04.947Z,99.90
2022-08-30T02:47:31.801Z,99.90
2022-08-30T02:52:27.748Z,99.90
2022-08-30T02:57:22.505Z,99.90
2022-08-30T03:02:16.385Z,99.90
2022-08-30T03:04:45.862Z,99.90
2022-08-30T03:07:12.724Z,99.90
2022-08-30T03:09:39.661Z,99.90
2022-08-30T03:12:07.725Z,99.90
2022-08-30T03:14:36.216Z,99.90
2022-08-30T03:17:04.763Z,99.90
2022-08-30T03:21:58.551Z,99.90
2022-08-30T03:24:25.882Z,99.90
2022-08-30T03:29:20.175Z,99.90
2022-08-30T03:31:52.971Z,99.90
2022-08-30T03:34:21.823Z,99.90
2022-08-30T03:36:49.369Z,99.90
2022-08-30T03:39:16.062Z,99.90
2022-08-30T03:41:42.846Z,99.90
2022-08-30T03:44:09.618Z,99.90
2022-08-30T03:46:37.675Z,99.90
2022-08-30T03:49:04.873Z,99.90
2022-08-30T03:51:31.550Z,99.90
2022-08-30T03:53:58.259Z,99.90
2022-08-30T03:56:24.985Z,99.90
2022-08-30T03:58:51.723Z,99.90
2022-08-30T04:01:18.480Z,99.90
2022-08-30T04:03:45.263Z,99.90
2022-08-30T04:08:39.203Z,99.90
2022-08-30T04:13:33.995Z,99.90
2022-08-30T04:16:00.702Z,99.90
2022-08-30T04:18:27.439Z,99.90
2022-08-30T04:20:54.189Z,99.90
2022-08-30T04:23:20.974Z,99.90
2022-08-30T04:30:42.982Z,99.90
2022-08-30T04:33:10.285Z,99.90
2022-08-30T04:35:37.071Z,99.90
2022-08-30T04:38:03.810Z,99.90
2022-08-30T04:40:30.550Z,99.90
2022-08-30T04:47:54.706Z,99.90
2022-08-30T04:52:50.401Z,99.90
2022-08-30T04:55:20.186Z,99.90
2022-08-30T04:57:47.309Z,99.90
2022-08-30T05:05:28.357Z,99.90
2022-08-30T05:07:55.068Z,99.90
2022-08-30T05:15:16.371Z,99.90
2022-08-30T05:17:43.054Z,99.90
2022-08-30T05:20:10.694Z,99.90
2022-08-30T05:22:38.179Z,99.90
2022-08-30T05:27:32.375Z,99.90
2022-08-30T05:30:06.150Z,99.90
2022-08-30T05:32:32.885Z,99.90
2022-08-30T05:37:26.994Z,99.90
2022-08-30T05:42:20.968Z,99.90
2022-08-30T05:44:53.938Z,99.90
2022-08-30T05:47:21.183Z,99.90
2022-08-30T05:49:48.086Z,99.90
2022-08-30T05:52:18.013Z,99.90
2022-08-30T05:57:12.377Z,99.90
2022-08-30T05:59:39.124Z,99.90
2022-08-30T06:02:07.269Z,99.90
2022-08-30T06:04:34.057Z,99.90
2022-08-30T06:07:00.700Z,99.90
2022-08-30T06:09:27.646Z,99.90
2022-08-30T06:11:54.839Z,99.90
2022-08-30T06:14:21.800Z,99.90
2022-08-30T06:19:15.861Z,99.90
2022-08-30T06:21:42.647Z,99.90
2022-08-30T06:24:12.485Z,99.90
2022-08-30T06:26:41.426Z,99.90
2022-08-30T06:36:30.107Z,99.90
2022-08-30T06:38:57.520Z,99.90
2022-08-30T06:41:28.478Z,99.90
2022-08-30T06:43:55.516Z,99.90
2022-08-30T06:46:27.334Z,99.90
2022-08-30T06:51:31.444Z,99.90
2022-08-30T06:53:58.707Z,99.90
2022-08-30T06:58:54.485Z,99.90
2022-08-30T07:01:23.233Z,99.90
2022-08-30T07:03:50.165Z,99.90
2022-08-30T07:06:17.394Z,99.90
2022-08-30T07:08:45.786Z,99.90
2022-08-30T07:11:12.504Z,99.90
2022-08-30T07:13:39.250Z,99.90
2022-08-30T07:16:12.522Z,99.90
2022-08-30T07:18:51.133Z,99.90
2022-08-30T07:21:19.481Z,99.90
2022-08-30T07:23:53.066Z,99.90
2022-08-30T07:26:23.535Z,99.90
2022-08-30T07:28:55.727Z,99.90
2022-08-30T07:31:22.873Z,99.90
2022-08-30T07:33:49.891Z,99.90
2022-08-30T07:36:17.711Z,99.90
2022-08-30T07:38:45.865Z,99.90
2022-08-30T07:41:29.654Z,99.90
2022-08-30T07:43:56.784Z,99.90
2022-08-30T07:48:51.381Z,99.90
2022-08-30T07:51:20.752Z,99.90
2022-08-30T07:53:47.486Z,99.90
2022-08-30T07:56:14.264Z,99.90
2022-08-30T07:58:40.928Z,99.90
2022-08-30T08:01:09.247Z,99.90
2022-08-30T08:03:36.052Z,99.90
2022-08-30T08:06:03.904Z,99.90
2022-08-30T08:08:30.758Z,99.90
2022-08-30T08:10:57.588Z,99.90
2022-08-30T08:13:24.814Z,99.90
2022-08-30T08:15:55.470Z,99.90
2022-08-30T08:18:22.314Z,99.90
2022-08-30T08:20:49.021Z,99.90
2022-08-30T08:23:16.256Z,99.90
2022-08-30T08:25:43.636Z,99.90
2022-08-30T08:28:10.402Z,99.90
2022-08-30T08:30:37.286Z,99.90
2022-08-30T08:33:05.182Z,99.90
2022-08-30T08:37:59.668Z,99.90
2022-08-30T08:40:26.616Z,99.90
2022-08-30T08:43:08.833Z,99.90
2022-08-30T08:46:00.396Z,99.90
2022-08-30T08:48:58.168Z,99.90
2022-08-30T08:51:42.786Z,99.90
2022-08-30T08:54:45.778Z,99.90
2022-08-30T08:57:15.897Z,99.90
2022-08-30T08:59:44.943Z,99.90
2022-08-30T09:02:24.583Z,99.90
2022-08-30T09:04:51.903Z,99.90
2022-08-30T09:07:21.860Z,99.90
2022-08-30T09:09:48.622Z,99.90
2022-08-30T09:12:15.415Z,99.90
2022-08-30T09:14:48.011Z,99.90
2022-08-30T09:17:15.942Z,99.90
2022-08-30T09:19:47.644Z,99.90
2022-08-30T09:27:51.152Z,99.90
2022-08-30T09:45:34.946Z,99.90
2022-08-30T09:48:31.594Z,99.90
2022-08-30T10:12:32.470Z,99.90
2022-08-30T10:15:11.257Z,99.90
2022-08-30T10:17:41.789Z,99.90
2022-08-30T10:20:11.702Z,99.90
2022-08-30T10:22:47.152Z,99.90
2022-08-30T10:25:17.591Z,99.90
2022-08-30T10:27:54.746Z,99.90
2022-08-30T10:30:23.128Z,99.90
2022-08-30T10:33:06.722Z,99.90
2022-08-30T10:35:38.993Z,99.90
2022-08-30T10:38:08.544Z,99.90
2022-08-30T10:40:55.679Z,99.90
2022-08-30T10:43:38.955Z,99.90
2022-08-30T10:46:09.513Z,99.90
2022-08-30T10:48:40.365Z,99.90
2022-08-30T10:51:16.830Z,99.70
2022-08-30T10:53:46.788Z,98.70
2022-08-30T10:56:16.222Z,97.60
2022-08-30T10:58:42.989Z,98.40
2022-08-30T11:01:49.753Z,98.00
2022-08-30T11:04:38.178Z,98.10
2022-08-30T11:07:18.437Z,97.10
2022-08-30T11:09:49.547Z,97.60
2022-08-30T11:12:27.162Z,97.40
2022-08-30T11:14:53.844Z,97.90
2022-08-30T11:17:32.067Z,96.80
2022-08-30T11:20:01.373Z,98.10
2022-08-30T11:22:31.212Z,98.20
2022-08-30T11:25:10.561Z,97.50
2022-08-30T11:27:47.361Z,96.60
2022-08-30T11:30:24.390Z,95.60
2022-08-30T11:33:09.943Z,93.70
2022-08-30T11:35:48.155Z,93.90
2022-08-30T11:38:28.285Z,94.20
2022-08-30T11:40:54.959Z,93.00
2022-08-30T11:43:39.734Z,92.50
2022-08-30T11:46:24.227Z,91.90
2022-08-30T11:49:36.629Z,92.60
2022-08-30T11:52:27.192Z,93.00
2022-08-30T11:55:18.957Z,92.80
2022-08-30T11:57:54.164Z,93.80
2022-08-30T12:00:39.650Z,93.20
2022-08-30T12:03:19.693Z,91.60
2022-08-30T12:05:55.455Z,91.70
2022-08-30T12:08:34.681Z,91.00
2022-08-30T12:11:12.925Z,90.60
2022-08-30T12:13:42.709Z,88.90
2022-08-30T12:16:13.788Z,85.50
2022-08-30T12:18:47.938Z,84.60
2022-08-30T12:21:27.158Z,88.50
2022-08-30T12:24:04.851Z,84.50
2022-08-30T12:26:35.966Z,84.90
2022-08-30T12:29:35.006Z,84.40
2022-08-30T12:32:08.316Z,87.80
2022-08-30T12:34:35.010Z,89.00
2022-08-30T12:37:10.775Z,88.30
2022-08-30T12:39:42.500Z,89.10
2022-08-30T12:42:27.283Z,84.90
2022-08-30T12:44:55.914Z,87.20
2022-08-30T12:47:30.261Z,82.00
2022-08-30T12:49:57.648Z,81.80
2022-08-30T12:52:39.058Z,84.10
2022-08-30T12:55:17.257Z,85.00
2022-08-30T12:58:08.960Z,87.50
2022-08-30T13:00:38.287Z,84.40
2022-08-30T13:03:16.228Z,86.70
2022-08-30T13:05:52.832Z,89.70
2022-08-30T13:08:21.359Z,86.10
2022-08-30T13:10:56.360Z,86.00
2022-08-30T13:13:44.490Z,82.90
2022-08-30T13:16:11.405Z,81.80
2022-08-30T13:18:38.455Z,82.30
2022-08-30T13:21:22.906Z,82.10
2022-08-30T13:23:54.700Z,84.10
2022-08-30T13:26:23.013Z,81.30
2022-08-30T13:28:59.080Z,81.50
2022-08-30T13:31:27.141Z,82.00
2022-08-30T13:33:54.097Z,80.10
2022-08-30T13:36:23.056Z,79.80
2022-08-30T13:38:51.392Z,81.60
2022-08-30T13:41:20.781Z,80.60
2022-08-30T13:46:34.777Z,81.10
2022-08-30T13:49:42.636Z,82.50
2022-08-30T13:52:19.111Z,78.80
2022-08-30T13:54:40.546Z,74.40
2022-08-30T13:57:07.229Z,75.80
2022-08-30T13:59:33.981Z,75.70
2022-08-30T14:02:10.434Z,73.70
2022-08-30T14:04:49.895Z,69.30
2022-08-30T14:07:20.486Z,70.70
2022-08-30T14:09:47.970Z,72.50
2022-08-30T14:12:15.195Z,74.60
2022-08-30T14:14:43.245Z,69.20
2022-08-30T14:17:14.428Z,72.40
2022-08-30T14:19:43.993Z,76.40
2022-08-30T14:22:10.748Z,75.60
2022-08-30T14:24:37.406Z,76.10
2022-08-30T14:27:04.120Z,75.70
2022-08-30T14:29:31.567Z,77.10
2022-08-30T14:31:59.988Z,80.20
2022-08-30T14:34:26.816Z,77.90
2022-08-30T14:36:53.850Z,77.10
2022-08-30T14:39:20.923Z,76.30
2022-08-30T14:41:52.325Z,75.10
2022-08-30T14:44:19.638Z,76.90
2022-08-30T14:46:46.381Z,74.40
2022-08-30T14:49:13.193Z,74.60
2022-08-30T14:51:40.057Z,73.50
2022-08-30T14:54:06.737Z,74.30
2022-08-30T14:56:34.510Z,77.10
2022-08-30T14:59:02.923Z,76.70
2022-08-30T15:01:30.435Z,78.30
2022-08-30T15:03:58.329Z,76.70
2022-08-30T15:06:26.440Z,77.10
2022-08-30T15:08:53.751Z,77.30
2022-08-30T15:11:21.324Z,78.10
2022-08-30T15:13:48.147Z,76.40
2022-08-30T15:16:18.210Z,75.40
2022-08-30T15:18:45.063Z,76.00
2022-08-30T15:21:11.887Z,76.30
2022-08-30T15:23:39.189Z,75.70
2022-08-30T15:26:06.485Z,74.70
2022-08-30T15:28:34.746Z,76.90
2022-08-30T15:31:06.303Z,75.20
2022-08-30T15:33:35.601Z,78.00
2022-08-30T15:36:04.325Z,78.40
2022-08-30T15:38:31.134Z,79.00
2022-08-30T15:41:02.174Z,79.30
2022-08-30T15:43:29.038Z,78.70
2022-08-30T15:45:56.540Z,81.00
2022-08-30T15:48:23.334Z,80.30
2022-08-30T15:50:58.133Z,81.20
2022-08-30T15:53:24.772Z,79.40
2022-08-30T15:55:51.863Z,80.10
2022-08-30T15:58:19.018Z,81.80
2022-08-30T16:00:45.865Z,84.20
2022-08-30T16:03:12.737Z,83.00
2022-08-30T16:05:39.418Z,84.50
2022-08-30T16:08:06.098Z,83.70
2022-08-30T16:10:32.762Z,84.50
2022-08-30T16:13:01.583Z,83.50
2022-08-30T16:15:29.648Z,82.20
2022-08-30T16:17:56.414Z,85.00
2022-08-30T16:20:24.742Z,85.50
2022-08-30T16:22:52.218Z,84.30
2022-08-30T16:25:18.925Z,85.20
2022-08-30T16:27:47.357Z,86.40
2022-08-30T16:30:14.331Z,87.80
2022-08-30T16:32:41.335Z,88.30
2022-08-30T16:35:09.376Z,89.00
2022-08-30T16:37:36.085Z,89.70
2022-08-30T16:40:03.674Z,89.60
2022-08-30T16:42:30.594Z,90.50
2022-08-30T16:44:57.281Z,91.00
2022-08-30T16:47:24.029Z,92.60
2022-08-30T16:52:18.390Z,92.50
2022-08-30T16:54:46.054Z,93.60
2022-08-30T16:57:18.859Z,93.90
2022-08-30T16:59:46.985Z,94.30
2022-08-30T17:02:17.657Z,94.80
2022-08-30T17:04:44.547Z,95.10
2022-08-30T17:07:13.747Z,96.30
2022-08-30T17:09:41.389Z,96.10
2022-08-30T17:12:08.197Z,96.70
2022-08-30T17:14:35.438Z,97.00
2022-08-30T17:17:03.892Z,97.30
2022-08-30T17:21:58.578Z,97.60
2022-08-30T17:24:25.469Z,98.40
2022-08-30T17:26:52.525Z,98.50
2022-08-30T17:29:19.643Z,98.30
2022-08-30T17:31:50.955Z,98.30
2022-08-30T17:34:18.572Z,99.10
2022-08-30T17:39:13.022Z,99.90
2022-08-30T17:41:45.281Z,99.90
2022-08-30T17:44:17.709Z,99.90
2022-08-30T17:46:45.028Z,99.90
2022-08-30T17:49:11.898Z,99.90
2022-08-30T17:51:42.391Z,99.90
2022-08-30T17:54:10.407Z,99.90
2022-08-30T17:56:37.154Z,99.90
2022-08-30T17:59:05.948Z,99.90
2022-08-30T18:04:02.064Z,99.90
2022-08-30T18:06:33.272Z,99.90
2022-08-30T18:09:01.028Z,99.90
2022-08-30T18:11:27.889Z,99.90
2022-08-30T18:13:55.621Z,99.90
2022-08-30T18:16:26.584Z,99.90
2022-08-30T18:18:57.198Z,99.90
2022-08-30T18:23:52.306Z,99.90
2022-08-30T18:26:19.570Z,99.90
2022-08-30T18:28:50.898Z,99.90
2022-08-30T18:31:17.590Z,99.90
2022-08-30T18:33:44.532Z,99.90
2022-08-30T18:36:11.308Z,99.90
2022-08-30T18:41:07.703Z,99.90
2022-08-30T18:43:35.276Z,99.90
2022-08-30T18:46:03.364Z,99.90
2022-08-30T18:48:30.062Z,99.90
2022-08-30T18:50:56.876Z,99.90
2022-08-30T18:58:23.443Z,99.90
2022-08-30T19:03:18.263Z,99.90
2022-08-30T19:10:40.741Z,99.90
2022-08-30T19:13:07.449Z,99.90
2022-08-30T19:15:34.385Z,99.90
2022-08-30T19:18:02.006Z,99.90
2022-08-30T19:23:10.704Z,99.90
2022-08-30T19:25:37.578Z,99.90
2022-08-30T19:28:05.599Z,99.90
2022-08-30T19:32:59.596Z,99.90
2022-08-30T19:37:57.182Z,99.90
2022-08-30T19:40:24.041Z,99.90
2022-08-30T19:42:52.521Z,99.90
2022-08-30T19:45:21.676Z,99.90
2022-08-30T19:47:48.961Z,99.90
2022-08-30T19:50:15.906Z,99.90
2022-08-30T19:52:42.819Z,99.90
2022-08-30T19:55:09.777Z,99.90
2022-08-30T20:00:11.184Z,99.90
2022-08-30T20:02:38.374Z,99.90
2022-08-30T20:05:05.767Z,99.90
2022-08-30T20:07:35.386Z,99.90
2022-08-30T20:10:06.082Z,99.90
2022-08-30T20:12:34.364Z,99.90
2022-08-30T20:15:09.213Z,99.90
2022-08-30T20:18:01.991Z,99.90
2022-08-30T20:20:23.362Z,99.90
2022-08-30T20:22:54.034Z,99.90
2022-08-30T20:25:21.220Z,99.90
2022-08-30T20:27:48.997Z,99.90
2022-08-30T20:30:15.966Z,99.90
2022-08-30T20:35:14.879Z,99.90
2022-08-30T20:37:43.151Z,99.90
2022-08-30T20:40:14.984Z,99.90
2022-08-30T20:42:46.407Z,99.90
2022-08-30T20:45:14.491Z,99.90
2022-08-30T20:47:41.724Z,99.90
2022-08-30T20:50:13.697Z,99.90
2022-08-30T20:52:40.770Z,99.90
2022-08-30T20:55:08.289Z,99.90
2022-08-30T20:57:34.961Z,99.90
2022-08-30T21:00:02.124Z,99.90
2022-08-30T21:04:56.166Z,99.90
2022-08-30T21:09:50.345Z,99.90
2022-08-30T21:12:17.196Z,99.90
2022-08-30T21:14:43.869Z,99.90
2022-08-30T21:17:10.614Z,99.90
2022-08-30T21:19:40.884Z,99.90
2022-08-30T21:22:10.623Z,99.90
2022-08-30T21:24:37.359Z,99.90
2022-08-30T21:27:04.062Z,99.90
2022-08-30T21:29:33.031Z,99.90
2022-08-30T21:34:27.166Z,99.90
2022-08-30T21:36:53.854Z,99.90
2022-08-30T21:39:22.330Z,99.90
2022-08-30T21:41:49.823Z,99.90
2022-08-30T21:44:19.278Z,99.90
2022-08-30T21:49:14.010Z,99.90
2022-08-30T21:51:42.139Z,99.90
2022-08-30T21:54:09.709Z,99.90
2022-08-30T21:56:37.622Z,99.90
2022-08-30T22:04:00.518Z,99.90
2022-08-30T22:06:32.418Z,99.90
2022-08-30T22:09:01.030Z,99.90
2022-08-30T22:11:28.388Z,99.90
2022-08-30T22:13:55.533Z,99.90
2022-08-30T22:16:22.718Z,99.90
2022-08-30T22:18:49.683Z,99.90
2022-08-30T22:21:19.078Z,99.90
2022-08-30T22:26:13.255Z,99.90
2022-08-30T22:28:40.009Z,99.90
2022-08-30T22:31:08.863Z,99.90
2022-08-30T22:33:35.596Z,99.90
2022-08-30T22:36:06.994Z,99.90
2022-08-30T22:38:34.073Z,99.90
2022-08-30T22:41:00.941Z,99.90
2022-08-30T22:43:27.623Z,99.90
2022-08-30T22:45:55.864Z,99.90
2022-08-30T22:48:22.531Z,99.90
2022-08-30T22:50:49.194Z,99.90
2022-08-30T22:58:10.189Z,99.90
2022-08-30T23:00:39.292Z,99.90
2022-08-30T23:03:05.975Z,99.90
2022-08-30T23:12:55.620Z,99.90
2022-08-30T23:17:49.661Z,99.90
2022-08-30T23:22:43.481Z,99.90
2022-08-30T23:28:20.962Z,99.90
2022-08-30T23:33:52.350Z,99.90
2022-08-30T23:36:37.739Z,99.90
2022-08-30T23:39:23.084Z,99.90
2022-08-30T23:47:40.349Z,99.90
2022-08-30T23:50:25.804Z,99.90
2022-08-30T23:53:11.410Z,99.90
2022-08-30T23:55:57.416Z,99.90
2022-08-30T23:58:42.651Z,99.90
